Time;durP1;ratioP1;P1;durP2;ratioP2;P2;SDS_P1;SDS_P2;PMS_P1;PMS_P2;Temp;Humidity;BMP_temperature;BMP_pressure;BME280_temperature;BME280_humidity;BME280_pressure;Samples;Min_cycle;Max_cycle;Signal;HPM_P1;HPM_P2
2021/03/27 00:00:55;;;;;;;12.88;6.60;;;10.80;76.80;;;;;;6280796;28;20549;-78
2021/03/27 00:04:04;;;;;;;8.88;7.40;;;11.00;75.70;;;;;;6276061;28;20213;-78
2021/03/27 00:07:14;;;;;;;7.78;6.10;;;11.30;74.90;;;;;;6283325;28;20075;-78
2021/03/27 00:10:22;;;;;;;7.15;4.97;;;11.50;74.30;;;;;;6282040;28;20084;-77
2021/03/27 00:13:32;;;;;;;10.30;4.93;;;11.60;73.70;;;;;;6286073;28;20125;-77
2021/03/27 00:16:39;;;;;;;10.50;6.60;;;11.80;73.10;;;;;;6293767;28;20069;-76
2021/03/27 00:19:43;;;;;;;5.50;5.00;;;11.90;72.50;;;;;;6297551;28;20037;-77
2021/03/27 00:22:50;;;;;;;6.78;5.05;;;12.00;72.20;;;;;;6298467;28;20049;-77
2021/03/27 00:25:58;;;;;;;5.38;4.88;;;12.20;71.80;;;;;;6288390;28;20114;-77
2021/03/27 00:29:05;;;;;;;4.85;4.40;;;12.30;71.20;;;;;;6284058;28;20112;-78
2021/03/27 00:32:10;;;;;;;9.27;4.82;;;12.40;70.60;;;;;;6282391;28;20041;-78
2021/03/27 00:35:16;;;;;;;8.30;4.03;;;12.50;70.10;;;;;;6282511;28;20124;-78
2021/03/27 00:38:21;;;;;;;6.05;5.10;;;12.60;70.40;;;;;;6287926;28;20081;-77
2021/03/27 00:41:29;;;;;;;5.05;4.55;;;12.60;69.70;;;;;;6283397;28;20059;-77
2021/03/27 00:44:34;;;;;;;4.07;2.50;;;12.70;69.60;;;;;;6276679;28;20128;-77
2021/03/27 00:47:40;;;;;;;3.40;3.10;;;12.70;69.60;;;;;;6274252;28;20437;-78
2021/03/27 00:50:46;;;;;;;3.60;3.08;;;12.80;69.20;;;;;;6279023;28;20194;-78
2021/03/27 00:53:53;;;;;;;3.72;3.33;;;12.90;68.80;;;;;;6278129;28;20055;-78
2021/03/27 00:57:01;;;;;;;5.65;3.92;;;13.00;68.80;;;;;;6278259;28;20493;-76
2021/03/27 01:00:10;;;;;;;3.45;2.70;;;13.00;68.80;;;;;;6278624;28;20444;-77
2021/03/27 01:03:15;;;;;;;4.15;3.30;;;13.00;69.30;;;;;;6276868;28;20107;-77
2021/03/27 01:06:22;;;;;;;4.07;3.22;;;13.00;69.70;;;;;;6277914;28;20052;-77
2021/03/27 01:09:29;;;;;;;5.15;2.50;;;13.00;69.90;;;;;;6276115;28;20482;-76
2021/03/27 01:12:35;;;;;;;3.92;2.58;;;13.00;70.20;;;;;;6278044;28;20586;-77
2021/03/27 01:15:42;;;;;;;3.72;3.33;;;13.00;70.30;;;;;;6277467;28;20124;-78
2021/03/27 01:18:47;;;;;;;2.83;2.25;;;12.90;70.40;;;;;;6278735;28;20076;-78
2021/03/27 01:21:52;;;;;;;2.75;2.40;;;13.00;70.60;;;;;;6276548;28;20132;-77
2021/03/27 01:24:57;;;;;;;13.60;3.83;;;12.90;70.90;;;;;;6277591;28;20550;-77
2021/03/27 01:28:05;;;;;;;4.43;3.28;;;12.90;70.90;;;;;;6276204;28;20045;-78
2021/03/27 01:31:16;;;;;;;3.33;2.75;;;12.90;71.10;;;;;;6276460;28;20045;-77
2021/03/27 01:34:24;;;;;;;3.53;2.60;;;12.80;71.40;;;;;;6276720;28;20080;-77
2021/03/27 01:37:28;;;;;;;;;;;12.80;72.30;;;;;;6276429;28;20091;-77
2021/03/27 01:40:35;;;;;;;2.90;2.60;;;12.70;72.00;;;;;;6275688;28;20364;-77
2021/03/27 01:43:49;;;;;;;3.47;3.17;;;12.70;72.60;;;;;;6275509;28;20523;-77
2021/03/27 01:47:03;;;;;;;3.20;2.42;;;12.60;72.90;;;;;;6276269;28;20083;-77
2021/03/27 01:50:27;;;;;;;4.80;3.35;;;12.50;73.60;;;;;;6276684;28;20049;-78
2021/03/27 01:53:35;;;;;;;4.25;3.85;;;12.50;74.10;;;;;;6275137;28;20087;-77
2021/03/27 01:56:45;;;;;;;4.50;3.00;;;12.40;74.70;;;;;;6275261;28;20079;-78
2021/03/27 01:59:52;;;;;;;4.07;3.67;;;12.40;75.50;;;;;;6275247;28;20059;-78
2021/03/27 02:03:02;;;;;;;2.63;2.42;;;12.30;76.00;;;;;;6276218;28;20051;-77
2021/03/27 02:06:11;;;;;;;6.95;3.13;;;12.30;76.30;;;;;;6275779;28;20120;-78
2021/03/27 02:09:19;;;;;;;6.63;3.28;;;12.20;76.60;;;;;;6275186;28;20041;-76
2021/03/27 02:12:30;;;;;;;6.00;3.47;;;12.10;77.10;;;;;;6274573;28;20524;-75
2021/03/27 02:15:43;;;;;;;3.80;3.47;;;12.10;77.50;;;;;;6274688;28;20126;-77
2021/03/27 02:18:54;;;;;;;8.48;4.38;;;12.10;78.10;;;;;;6275991;28;20060;-74
2021/03/27 02:22:04;;;;;;;4.13;3.72;;;12.10;78.50;;;;;;6275412;28;20055;-77
2021/03/27 02:25:39;;;;;;;5.38;2.72;;;12.00;78.60;;;;;;6278121;28;20045;-77
2021/03/27 02:28:58;;;;;;;3.15;2.80;;;12.00;78.60;;;;;;6263511;28;20037;-77
2021/03/27 02:32:08;;;;;;;5.20;3.50;;;12.10;78.80;;;;;;6274682;28;20144;-76
2021/03/27 02:35:13;;;;;;;4.80;4.35;;;;;;;;;;6274458;28;20136;-76
2021/03/27 02:38:28;;;;;;;6.30;5.70;;;11.90;84.10;;;;;;6276451;28;20673;-78
2021/03/27 02:41:43;;;;;;;13.20;6.38;;;11.80;85.90;;;;;;6276993;28;20055;-77
2021/03/27 02:44:50;;;;;;;8.60;4.55;;;11.50;90.00;;;;;;6277080;28;20105;-78
2021/03/27 02:48:04;;;;;;;6.22;4.00;;;11.10;91.10;;;;;;6276540;28;20124;-78
2021/03/27 02:51:11;;;;;;;5.07;4.25;;;10.70;92.10;;;;;;6276633;28;20076;-78
2021/03/27 02:54:21;;;;;;;5.13;4.63;;;10.30;93.70;;;;;;6275331;28;20140;-77
2021/03/27 02:57:30;;;;;;;8.35;4.75;;;10.10;95.50;;;;;;6276588;28;20132;-77
2021/03/27 03:00:41;;;;;;;4.80;3.85;;;9.90;97.00;;;;;;6276509;28;20060;-78
2021/03/27 03:03:52;;;;;;;5.72;4.32;;;9.80;98.00;;;;;;6275501;28;20123;-78
2021/03/27 03:06:59;;;;;;;8.07;5.05;;;9.70;98.90;;;;;;6275059;28;20511;-77
2021/03/27 03:10:14;;;;;;;3.67;2.27;;;9.50;99.20;;;;;;6273775;28;20048;-77
2021/03/27 03:13:22;;;;;;;4.28;1.80;;;9.40;99.20;;;;;;6276145;28;20118;-78
2021/03/27 03:16:30;;;;;;;1.88;1.60;;;9.20;98.70;;;;;;6276320;28;20080;-77
2021/03/27 03:19:41;;;;;;;2.03;1.45;;;9.00;98.30;;;;;;6275118;28;20070;-77
2021/03/27 03:22:50;;;;;;;3.13;1.98;;;8.90;97.70;;;;;;6274363;28;20059;-77
2021/03/27 03:26:00;;;;;;;1.27;1.17;;;8.70;97.90;;;;;;6273737;28;20127;-78
2021/03/27 03:29:12;;;;;;;1.63;1.33;;;8.60;97.40;;;;;;6274618;28;20064;-76
2021/03/27 03:32:25;;;;;;;1.90;1.55;;;8.30;98.00;;;;;;6273762;28;20169;-77
2021/03/27 03:35:35;;;;;;;4.57;1.52;;;8.10;98.50;;;;;;6273634;28;20131;-77
2021/03/27 03:39:05;;;;;;;2.85;2.30;;;8.00;99.40;;;;;;6274511;28;20084;-78
2021/03/27 03:42:27;;;;;;;4.68;1.90;;;8.00;99.50;;;;;;6274840;28;20095;-77
2021/03/27 03:45:43;;;;;;;4.35;1.88;;;7.80;99.60;;;;;;6272336;28;20056;-77
2021/03/27 03:48:53;;;;;;;2.38;2.17;;;7.80;99.40;;;;;;6273314;28;20036;-76
2021/03/27 03:52:18;;;;;;;3.13;1.88;;;7.70;99.30;;;;;;6272135;28;20148;-76
2021/03/27 03:55:32;;;;;;;5.03;1.90;;;7.70;99.10;;;;;;6271767;28;20049;-76
2021/03/27 03:58:49;;;;;;;2.40;2.20;;;7.70;98.70;;;;;;6272453;28;20090;-76
2021/03/27 04:01:58;;;;;;;2.30;1.73;;;7.60;98.50;;;;;;6272027;28;20051;-77
2021/03/27 04:05:07;;;;;;;3.35;1.63;;;7.60;98.40;;;;;;6271231;28;20129;-77
2021/03/27 04:08:17;;;;;;;1.65;1.55;;;7.60;98.10;;;;;;6275072;28;20068;-78
2021/03/27 04:11:40;;;;;;;1.58;1.48;;;7.60;98.10;;;;;;6272962;28;20045;-78
2021/03/27 04:15:12;;;;;;;2.03;1.92;;;7.50;97.90;;;;;;6279105;28;20108;-78
2021/03/27 04:18:26;;;;;;;2.65;1.50;;;7.50;97.10;;;;;;6270231;28;20056;-75
2021/03/27 04:21:32;;;;;;;1.58;1.45;;;7.40;96.20;;;;;;6274656;28;20120;-78
2021/03/27 04:24:41;;;;;;;1.48;1.27;;;7.40;95.30;;;;;;6276540;28;20048;-77
2021/03/27 04:27:50;;;;;;;1.55;1.45;;;7.50;94.80;;;;;;6279616;28;20507;-78
2021/03/27 04:30:59;;;;;;;1.77;1.27;;;7.50;94.50;;;;;;6280218;28;20411;-78
2021/03/27 04:34:07;;;;;;;3.35;1.00;;;7.60;94.50;;;;;;6279977;28;20614;-78
2021/03/27 04:37:15;;;;;;;1.50;0.90;;;7.50;93.10;;;;;;6279839;28;20128;-78
2021/03/27 04:40:24;;;;;;;1.13;1.02;;;7.50;92.50;;;;;;6278193;28;20108;-77
2021/03/27 04:43:28;;;;;;;0.75;0.75;;;7.50;91.90;;;;;;6279701;28;20108;-79
2021/03/27 04:46:34;;;;;;;1.33;1.23;;;7.50;91.90;;;;;;6277686;28;20140;-78
2021/03/27 04:49:44;;;;;;;0.90;0.90;;;7.50;91.70;;;;;;6277003;28;20105;-78
2021/03/27 04:52:53;;;;;;;2.90;1.35;;;7.50;91.60;;;;;;6275779;28;20072;-77
2021/03/27 04:56:06;;;;;;;1.15;1.10;;;7.70;95.10;;;;;;6275583;28;20124;-78
2021/03/27 04:59:17;;;;;;;1.17;1.08;;;7.60;95.00;;;;;;6273954;28;20136;-78
2021/03/27 05:02:30;;;;;;;1.45;1.35;;;7.50;94.20;;;;;;6274919;28;20134;-78
2021/03/27 05:05:52;;;;;;;1.30;1.20;;;7.40;96.40;;;;;;6274049;28;20440;-77
2021/03/27 05:09:25;;;;;;;1.88;1.20;;;7.40;97.10;;;;;;6274435;28;20149;-78
2021/03/27 05:12:43;;;;;;;1.40;1.30;;;7.30;93.10;;;;;;6274441;28;20510;-78
2021/03/27 05:15:49;;;;;;;1.40;1.33;;;7.30;93.40;;;;;;6276817;28;20131;-78
2021/03/27 05:18:55;;;;;;;4.28;1.30;;;7.10;93.70;;;;;;6276575;28;20262;-77
2021/03/27 05:22:03;;;;;;;2.33;1.63;;;7.10;94.00;;;;;;6273884;28;20509;-77
2021/03/27 05:25:10;;;;;;;;;;;6.90;94.40;;;;;;6275419;28;20483;-78
2021/03/27 05:28:35;;;;;;;5.82;3.45;;;6.80;94.60;;;;;;6274785;28;19927;-78
2021/03/27 05:31:46;;;;;;;1.30;1.20;;;6.60;93.40;;;;;;6274561;28;20134;-77
2021/03/27 05:34:51;;;;;;;1.75;1.20;;;6.70;93.20;;;;;;6277242;28;20517;-77
2021/03/27 05:38:11;;;;;;;1.42;1.30;;;6.90;93.50;;;;;;6277847;28;20041;-77
2021/03/27 05:41:41;;;;;;;3.28;1.10;;;6.90;92.30;;;;;;6278439;28;20107;-78
2021/03/27 05:45:29;;;;;;;2.83;2.22;;;7.20;92.40;;;;;;6277232;28;20129;-77
2021/03/27 05:49:22;;;;;;;5.72;1.60;;;7.30;92.10;;;;;;6241922;28;20447;-78
2021/03/27 05:52:56;;;;;;;2.38;1.50;;;7.30;89.30;;;;;;6185487;28;20083;-78
2021/03/27 05:56:11;;;;;;;1.17;1.00;;;7.40;88.90;;;;;;6235658;28;20048;-78
2021/03/27 05:59:36;;;;;;;1.27;1.17;;;7.70;88.20;;;;;;6277044;28;20049;-78
2021/03/27 06:02:56;;;;;;;1.55;1.27;;;7.60;86.50;;;;;;6279855;28;20075;-78
2021/03/27 06:06:26;;;;;;;2.92;1.45;;;7.60;85.80;;;;;;6279418;28;20045;-78
2021/03/27 06:09:52;;;;;;;1.27;1.17;;;7.60;84.60;;;;;;6277267;28;20067;-78
2021/03/27 06:13:31;;;;;;;3.03;1.10;;;7.70;84.00;;;;;;6276806;28;20055;-78
2021/03/27 06:16:56;;;;;;;8.57;2.07;;;7.80;84.30;;;;;;6273673;28;20099;-77
2021/03/27 06:20:30;;;;;;;8.18;1.70;;;8.00;83.30;;;;;;6276574;28;20129;-77
2021/03/27 06:24:02;;;;;;;2.13;1.58;;;8.20;82.70;;;;;;6269080;28;20126;-78
2021/03/27 06:27:17;;;;;;;4.20;1.80;;;8.10;82.10;;;;;;6277099;28;20081;-78
2021/03/27 06:30:37;;;;;;;3.35;1.70;;;8.10;81.50;;;;;;6277350;28;20072;-77
2021/03/27 06:34:09;;;;;;;1.92;1.20;;;;;;;;;;6276503;28;20088;-78
2021/03/27 06:37:44;;;;;;;8.50;1.50;;;8.10;80.60;;;;;;6223188;28;20124;-77
2021/03/27 06:41:10;;;;;;;1.92;1.73;;;7.90;81.30;;;;;;6231011;28;20496;-78
2021/03/27 06:44:37;;;;;;;4.88;3.72;;;7.90;81.90;;;;;;6273528;28;20053;-78
2021/03/27 06:48:17;;;;;;;3.63;1.63;;;7.90;81.30;;;;;;6280799;28;20175;-78
2021/03/27 06:51:40;;;;;;;3.70;1.80;;;8.20;80.60;;;;;;6249399;28;20045;-78
2021/03/27 06:54:58;;;;;;;5.00;3.42;;;8.40;79.50;;;;;;6280592;28;20061;-78
2021/03/27 06:58:29;;;;;;;2.25;1.85;;;8.50;78.70;;;;;;6279999;28;20084;-78
2021/03/27 07:01:58;;;;;;;5.15;1.67;;;8.50;79.00;;;;;;6279580;28;20045;-78
2021/03/27 07:05:44;;;;;;;2.35;2.13;;;8.50;77.20;;;;;;6269833;28;20057;-77
2021/03/27 07:09:03;;;;;;;1.63;0.98;;;8.50;77.00;;;;;;6228173;28;20056;-78
2021/03/27 07:12:25;;;;;;;2.33;1.48;;;8.50;76.40;;;;;;6255683;28;20172;-78
2021/03/27 07:15:43;;;;;;;3.55;1.08;;;8.60;76.10;;;;;;6276889;28;20084;-78
2021/03/27 07:19:16;;;;;;;4.30;1.38;;;8.60;74.70;;;;;;6262072;28;20514;-78
2021/03/27 07:22:43;;;;;;;3.13;1.20;;;8.70;74.30;;;;;;6278169;28;20131;-75
2021/03/27 07:25:56;;;;;;;2.75;1.58;;;8.80;73.10;;;;;;6277069;28;20098;-78
2021/03/27 07:29:46;;;;;;;5.18;1.55;;;8.90;71.40;;;;;;6276984;28;20137;-78
2021/03/27 07:33:04;;;;;;;;;;;9.00;70.20;;;;;;6278711;28;20045;-78
2021/03/27 07:36:35;;;;;;;1.40;1.30;;;9.10;69.80;;;;;;6277252;28;19976;-78
2021/03/27 07:39:51;;;;;;;0.88;0.88;;;9.20;68.40;;;;;;6280341;28;20048;-78
2021/03/27 07:43:19;;;;;;;2.85;1.17;;;9.30;65.50;;;;;;6281837;28;20049;-78
2021/03/27 07:46:29;;;;;;;1.95;1.33;;;9.30;64.80;;;;;;6242642;28;20053;-77
2021/03/27 07:50:14;;;;;;;4.03;1.40;;;9.30;64.50;;;;;;6274698;28;20132;-78
2021/03/27 07:53:54;;;;;;;4.90;1.23;;;9.20;63.80;;;;;;6275152;28;20084;-78
2021/03/27 07:57:25;;;;;;;1.55;1.23;;;9.40;63.10;;;;;;6241721;28;20109;-78
2021/03/27 08:00:44;;;;;;;5.65;1.38;;;9.60;61.60;;;;;;6274643;28;20068;-78
2021/03/27 08:04:20;;;;;;;2.63;1.75;;;9.90;61.00;;;;;;6276280;28;20079;-78
2021/03/27 08:07:37;;;;;;;1.15;1.05;;;10.10;60.60;;;;;;6277276;28;20068;-78
2021/03/27 08:11:05;;;;;;;6.18;1.63;;;10.30;60.80;;;;;;6277006;28;20049;-78
2021/03/27 08:14:42;;;;;;;5.83;1.37;;;10.40;60.40;;;;;;6276625;28;20502;-78
2021/03/27 08:18:05;;;;;;;4.82;1.52;;;10.50;58.30;;;;;;6277777;28;20468;-78
2021/03/27 08:21:16;;;;;;;5.50;1.15;;;10.10;57.70;;;;;;6277994;28;20056;-78
2021/03/27 08:24:46;;;;;;;2.30;1.20;;;9.90;58.90;;;;;;6279540;28;20095;-78
2021/03/27 08:28:09;;;;;;;3.80;1.20;;;9.80;59.80;;;;;;6280326;28;20044;-78
2021/03/27 08:31:40;;;;;;;2.97;1.60;;;9.80;60.00;;;;;;6279112;28;20587;-76
2021/03/27 08:35:04;;;;;;;5.45;1.58;;;9.80;59.40;;;;;;6233571;28;20072;-77
2021/03/27 08:38:29;;;;;;;1.98;1.35;;;10.00;59.50;;;;;;6266729;28;20114;-78
2021/03/27 08:41:50;;;;;;;7.05;3.60;;;10.20;59.00;;;;;;6275852;28;20087;-78
2021/03/27 08:45:23;;;;;;;8.38;1.42;;;10.50;57.20;;;;;;6276289;28;20052;-78
2021/03/27 08:48:55;;;;;;;2.33;1.40;;;10.50;56.60;;;;;;6221944;28;20072;-78
2021/03/27 08:52:04;;;;;;;2.97;1.20;;;10.40;57.20;;;;;;6277646;28;20506;-78
2021/03/27 08:55:21;;;;;;;3.65;1.05;;;10.80;56.70;;;;;;6277184;28;20136;-78
2021/03/27 08:58:53;;;;;;;1.92;1.35;;;11.00;55.20;;;;;;6276451;28;20167;-78
2021/03/27 09:02:23;;;;;;;5.10;1.92;;;11.20;55.10;;;;;;6255756;28;20104;-79
2021/03/27 09:05:37;;;;;;;3.50;1.35;;;11.20;55.00;;;;;;6257145;28;20120;-76
2021/03/27 09:08:45;;;;;;;7.25;2.10;;;11.30;54.40;;;;;;6277973;28;20129;-78
2021/03/27 09:12:12;;;;;;;3.15;1.08;;;11.50;56.80;;;;;;6281013;28;20072;-78
2021/03/27 09:15:32;;;;;;;3.75;1.15;;;11.90;53.00;;;;;;6281700;28;20144;-78
2021/03/27 09:18:48;;;;;;;5.68;1.10;;;11.90;53.40;;;;;;6279931;28;20049;-77
2021/03/27 09:22:25;;;;;;;3.55;1.05;;;11.90;51.80;;;;;;6278579;28;20139;-78
2021/03/27 09:25:35;;;;;;;1.33;1.08;;;11.80;51.70;;;;;;6279058;28;20087;-77
2021/03/27 09:28:47;;;;;;;1.30;0.98;;;11.70;50.70;;;;;;6277996;28;20045;-75
2021/03/27 09:32:04;;;;;;;2.45;1.10;;;11.50;51.90;;;;;;6279666;28;20171;-78
2021/03/27 09:35:31;;;;;;;4.57;1.10;;;11.50;51.90;;;;;;6283277;28;20127;-78
2021/03/27 09:38:39;;;;;;;3.58;1.02;;;11.50;51.60;;;;;;6284598;28;20144;-78
2021/03/27 09:42:05;;;;;;;;;;;11.60;51.50;;;;;;6282895;28;20057;-79
2021/03/27 09:45:21;;;;;;;2.25;1.52;;;11.70;51.50;;;;;;6281826;28;20033;-78
2021/03/27 09:48:35;;;;;;;2.75;1.33;;;12.30;54.90;;;;;;6279360;28;20048;-76
2021/03/27 09:52:04;;;;;;;2.85;1.75;;;12.10;49.00;;;;;;6278338;28;20117;-77
2021/03/27 09:55:41;;;;;;;4.60;2.03;;;12.10;49.10;;;;;;6281215;28;20132;-78
2021/03/27 09:59:10;;;;;;;5.88;1.60;;;12.30;53.60;;;;;;6282715;28;20136;-77
2021/03/27 10:02:21;;;;;;;2.42;1.08;;;12.40;49.70;;;;;;6280079;28;20536;-77
2021/03/27 10:05:35;;;;;;;6.15;0.93;;;13.00;48.40;;;;;;6279139;28;20126;-78
2021/03/27 10:08:42;;;;;;;2.08;1.33;;;13.20;47.90;;;;;;6280860;28;20075;-78
2021/03/27 10:11:47;;;;;;;9.57;5.13;;;13.20;46.90;;;;;;6277779;28;20128;-77
2021/03/27 10:14:54;;;;;;;6.05;3.53;;;13.00;47.50;;;;;;6276898;28;20086;-77
2021/03/27 10:18:05;;;;;;;4.45;1.92;;;13.30;52.10;;;;;;6276160;28;20052;-77
2021/03/27 10:21:21;;;;;;;6.60;4.70;;;13.70;53.50;;;;;;6273745;28;20051;-77
2021/03/27 10:24:31;;;;;;;3.17;1.27;;;13.80;59.60;;;;;;6276219;28;20045;-79
2021/03/27 10:27:40;;;;;;;11.43;7.25;;;14.00;44.60;;;;;;6278093;28;20079;-77
2021/03/27 10:30:53;;;;;;;7.28;1.75;;;14.00;43.00;;;;;;6277226;28;20084;-77
2021/03/27 10:34:17;;;;;;;2.35;1.30;;;14.30;41.10;;;;;;6277868;28;20534;-78
2021/03/27 10:37:25;;;;;;;4.22;1.33;;;14.50;40.70;;;;;;6277310;28;20052;-77
2021/03/27 10:40:44;;;;;;;2.95;1.23;;;14.50;40.00;;;;;;6275823;28;20068;-77
2021/03/27 10:43:50;;;;;;;1.92;1.23;;;14.10;40.70;;;;;;6275731;28;20588;-77
2021/03/27 10:46:58;;;;;;;3.38;0.93;;;14.10;47.30;;;;;;6278294;28;20056;-78
2021/03/27 10:50:08;;;;;;;4.15;1.90;;;13.70;42.80;;;;;;6274427;28;20461;-77
2021/03/27 10:53:23;;;;;;;7.95;4.95;;;13.40;43.70;;;;;;6274706;28;20495;-77
2021/03/27 10:56:37;;;;;;;8.95;4.78;;;13.40;43.40;;;;;;6274767;28;20060;-77
2021/03/27 10:59:51;;;;;;;3.58;2.60;;;13.50;44.00;;;;;;6276035;28;20120;-77
2021/03/27 11:03:00;;;;;;;1.88;0.95;;;;;;;;;;6276756;28;20140;-77
2021/03/27 11:06:17;;;;;;;4.03;1.23;;;13.40;42.40;;;;;;6274166;28;20084;-77
2021/03/27 11:10:06;;;;;;;7.00;0.98;;;13.50;43.30;;;;;;6278569;28;20128;-77
2021/03/27 11:13:39;;;;;;;15.45;14.10;;;13.40;43.50;;;;;;6275937;28;20072;-77
2021/03/27 11:17:19;;;;;;;9.00;7.28;;;13.40;44.70;;;;;;6275001;28;20111;-77
2021/03/27 11:20:58;;;;;;;4.18;1.38;;;14.20;43.40;;;;;;6274932;28;20135;-77
2021/03/27 11:24:32;;;;;;;3.97;0.95;;;14.70;41.30;;;;;;6249046;28;20055;-78
2021/03/27 11:27:56;;;;;;;3.50;1.17;;;14.60;40.80;;;;;;6275469;28;20049;-77
2021/03/27 11:31:23;;;;;;;2.97;1.35;;;14.30;40.90;;;;;;6274598;28;20110;-76
2021/03/27 11:34:30;;;;;;;2.00;1.02;;;14.00;41.90;;;;;;6276823;28;20504;-77
2021/03/27 11:37:49;;;;;;;3.30;0.93;;;13.70;42.20;;;;;;6276893;28;20526;-77
2021/03/27 11:41:03;;;;;;;1.77;0.93;;;13.50;42.60;;;;;;6276607;28;20052;-77
2021/03/27 11:44:42;;;;;;;3.00;1.05;;;13.30;43.00;;;;;;6272314;28;20138;-77
2021/03/27 11:47:59;;;;;;;7.15;1.42;;;12.90;42.80;;;;;;6221822;28;20056;-77
2021/03/27 11:51:13;;;;;;;4.20;1.30;;;12.80;43.80;;;;;;6272642;28;20056;-76
2021/03/27 11:54:30;;;;;;;3.88;1.95;;;12.60;44.60;;;;;;6273136;28;20106;-77
2021/03/27 11:57:48;;;;;;;4.50;4.03;;;12.70;44.50;;;;;;6272473;28;20087;-77
2021/03/27 12:01:03;;;;;;;5.00;1.95;;;12.80;43.30;;;;;;6272298;28;20049;-76
2021/03/27 12:04:19;;;;;;;5.82;2.13;;;12.90;43.30;;;;;;6271793;28;20041;-77
2021/03/27 12:07:26;;;;;;;3.97;2.15;;;13.00;43.80;;;;;;6272661;28;20037;-76
2021/03/27 12:10:41;;;;;;;6.95;3.75;;;13.20;42.40;;;;;;6276377;28;20073;-77
2021/03/27 12:13:46;;;;;;;6.72;1.60;;;13.40;43.10;;;;;;6272815;28;20079;-77
2021/03/27 12:16:58;;;;;;;2.70;1.00;;;13.80;42.10;;;;;;6279248;28;20392;-77
2021/03/27 12:20:17;;;;;;;4.32;1.10;;;13.90;42.20;;;;;;6272934;28;20186;-77
2021/03/27 12:23:27;;;;;;;3.53;0.82;;;13.90;41.80;;;;;;6272307;28;20099;-77
2021/03/27 12:26:38;;;;;;;3.72;1.17;;;13.60;42.40;;;;;;6272650;28;20586;-77
2021/03/27 12:29:43;;;;;;;5.97;1.83;;;13.40;42.90;;;;;;6272081;28;20127;-77
2021/03/27 12:32:54;;;;;;;6.97;1.48;;;13.50;43.10;;;;;;6272301;28;20063;-77
2021/03/27 12:36:07;;;;;;;5.13;1.30;;;13.50;43.10;;;;;;6272604;28;20173;-76
2021/03/27 12:39:26;;;;;;;5.70;1.40;;;13.60;43.20;;;;;;6274933;28;20140;-77
2021/03/27 12:42:35;;;;;;;2.42;1.30;;;13.70;43.10;;;;;;6302066;28;20033;-76
2021/03/27 12:45:39;;;;;;;4.53;1.13;;;14.00;43.20;;;;;;6302144;28;20057;-77
2021/03/27 12:49:01;;;;;;;2.45;1.13;;;14.00;42.80;;;;;;6302598;28;20052;-77
2021/03/27 12:52:19;;;;;;;2.90;0.95;;;14.00;42.60;;;;;;6302339;28;20037;-76
2021/03/27 12:55:39;;;;;;;3.10;1.13;;;14.30;42.30;;;;;;6300672;28;20045;-77
2021/03/27 12:58:50;;;;;;;4.85;1.52;;;14.30;42.50;;;;;;6299846;28;20040;-76
2021/03/27 13:01:59;;;;;;;2.65;0.90;;;14.30;42.20;;;;;;6271992;28;20056;-77
2021/03/27 13:05:09;;;;;;;6.85;1.92;;;14.30;42.20;;;;;;6271298;28;20514;-76
2021/03/27 13:08:20;;;;;;;6.95;2.15;;;14.00;42.30;;;;;;6271612;28;20083;-77
2021/03/27 13:11:26;;;;;;;6.35;1.17;;;13.50;43.50;;;;;;6271578;28;20127;-77
2021/03/27 13:15:06;;;;;;;3.03;1.02;;;13.20;44.30;;;;;;6271714;28;20055;-77
2021/03/27 13:18:48;;;;;;;2.58;1.38;;;12.90;45.20;;;;;;6271838;28;20053;-76
2021/03/27 13:22:08;;;;;;;3.92;1.33;;;12.70;46.20;;;;;;6271343;28;20136;-77
2021/03/27 13:25:21;;;;;;;5.15;1.35;;;12.50;46.80;;;;;;6272084;28;20080;-77
2021/03/27 13:28:32;;;;;;;3.40;1.40;;;12.40;47.00;;;;;;6271814;28;20049;-77
2021/03/27 13:31:40;;;;;;;6.57;3.08;;;12.60;47.70;;;;;;6271120;28;20514;-77
2021/03/27 13:34:45;;;;;;;6.05;3.08;;;12.80;46.90;;;;;;6275591;28;20077;-77
2021/03/27 13:37:52;;;;;;;8.88;1.42;;;12.70;47.10;;;;;;6270723;28;20045;-77
2021/03/27 13:40:58;;;;;;;4.93;1.83;;;12.50;47.80;;;;;;6271102;28;20044;-76
2021/03/27 13:44:07;;;;;;;8.98;1.48;;;12.50;47.60;;;;;;6269538;28;20118;-77
2021/03/27 13:47:14;;;;;;;10.10;1.80;;;12.60;46.60;;;;;;6268789;28;20538;-77
2021/03/27 13:50:23;;;;;;;5.03;1.83;;;12.60;47.20;;;;;;6270448;28;20045;-76
2021/03/27 13:53:44;;;;;;;7.50;1.42;;;12.70;48.20;;;;;;6270557;28;20045;-77
2021/03/27 13:56:52;;;;;;;2.83;1.33;;;12.80;48.10;;;;;;6266178;28;20490;-76
2021/03/27 14:00:09;;;;;;;5.35;1.48;;;12.90;48.10;;;;;;6274353;28;20560;-76
2021/03/27 14:03:29;;;;;;;9.47;1.27;;;13.10;46.20;;;;;;6274996;28;20123;-79
2021/03/27 14:06:34;;;;;;;2.85;1.30;;;13.40;44.90;;;;;;6274568;28;20339;-77
2021/03/27 14:09:53;;;;;;;8.82;2.13;;;13.70;43.70;;;;;;6274454;28;20136;-75
2021/03/27 14:13:00;;;;;;;19.52;13.48;;;14.10;43.20;;;;;;6273541;28;20064;-77
2021/03/27 14:16:11;;;;;;;22.97;13.40;;;14.50;42.00;;;;;;6273885;28;20132;-77
2021/03/27 14:19:27;;;;;;;18.30;13.23;;;14.40;42.30;;;;;;6274276;28;20049;-77
2021/03/27 14:22:42;;;;;;;6.38;2.50;;;14.00;43.30;;;;;;6274198;28;20486;-76
2021/03/27 14:25:57;;;;;;;6.95;2.13;;;13.70;43.80;;;;;;6273695;28;20045;-76
2021/03/27 14:29:03;;;;;;;7.57;1.50;;;13.60;44.90;;;;;;6274273;28;20048;-79
2021/03/27 14:32:16;;;;;;;4.03;1.15;;;13.70;43.30;;;;;;6273746;28;20053;-78
2021/03/27 14:35:48;;;;;;;4.07;1.27;;;13.80;43.80;;;;;;6273369;28;20064;-76
2021/03/27 14:39:22;;;;;;;8.25;1.67;;;14.10;43.10;;;;;;6273838;28;20537;-76
2021/03/27 14:42:36;;;;;;;12.82;1.92;;;14.30;41.90;;;;;;6273822;28;20124;-76
2021/03/27 14:45:50;;;;;;;5.63;1.58;;;14.20;41.70;;;;;;6269838;28;20132;-77
2021/03/27 14:49:09;;;;;;;6.28;1.73;;;14.10;42.00;;;;;;6272482;28;20187;-76
2021/03/27 14:52:18;;;;;;;8.27;1.35;;;14.00;41.40;;;;;;6273830;28;20051;-76
2021/03/27 14:55:29;;;;;;;3.78;1.05;;;13.80;41.70;;;;;;6273232;28;20049;-76
2021/03/27 14:58:41;;;;;;;6.75;1.65;;;13.70;42.30;;;;;;6273451;28;20556;-77
2021/03/27 15:01:46;;;;;;;2.08;1.30;;;13.50;42.40;;;;;;6273694;28;20044;-76
2021/03/27 15:04:59;;;;;;;4.95;2.20;;;13.30;42.60;;;;;;6271221;28;20128;-76
2021/03/27 15:08:04;;;;;;;3.60;1.17;;;13.20;43.40;;;;;;6272662;28;20452;-77
2021/03/27 15:11:14;;;;;;;3.97;1.98;;;13.00;43.60;;;;;;6272416;28;20141;-76
2021/03/27 15:14:24;;;;;;;4.88;1.35;;;13.00;44.20;;;;;;6272404;28;20080;-76
2021/03/27 15:17:41;;;;;;;3.63;1.33;;;12.90;43.90;;;;;;6271808;28;20049;-76
2021/03/27 15:20:53;;;;;;;2.58;1.13;;;12.80;43.50;;;;;;6272747;28;20119;-78
2021/03/27 15:23:59;;;;;;;3.03;1.98;;;12.70;43.10;;;;;;6271934;28;20060;-78
2021/03/27 15:27:17;;;;;;;6.97;1.40;;;12.70;42.80;;;;;;6271727;28;20151;-78
2021/03/27 15:30:25;;;;;;;8.00;1.83;;;12.70;43.30;;;;;;6272771;28;20546;-79
2021/03/27 15:33:56;;;;;;;4.25;2.38;;;12.70;43.30;;;;;;6271386;28;20088;-78
2021/03/27 15:37:05;;;;;;;4.22;1.33;;;12.70;43.80;;;;;;6271336;28;20164;-78
2021/03/27 15:40:15;;;;;;;9.05;3.75;;;12.50;44.30;;;;;;6276245;28;20049;-79
2021/03/27 15:43:26;;;;;;;4.25;1.48;;;12.50;45.30;;;;;;6276065;28;20052;-78
2021/03/27 15:46:33;;;;;;;4.25;1.27;;;12.40;44.90;;;;;;6277777;28;20060;-79
2021/03/27 15:49:37;;;;;;;3.83;1.63;;;12.30;45.30;;;;;;6274608;28;20072;-78
2021/03/27 15:52:42;;;;;;;4.07;2.55;;;12.20;45.50;;;;;;6273819;28;20128;-80
2021/03/27 15:55:55;;;;;;;3.75;1.88;;;12.20;45.20;;;;;;6275078;28;20056;-80
2021/03/27 15:59:38;;;;;;;5.72;1.42;;;12.10;45.60;;;;;;6273639;28;20102;-77
2021/03/27 16:06:26;;;;;;;1.88;1.35;;;12.10;45.10;;;;;;6400111;27;20386;-78
2021/03/27 16:09:31;;;;;;;7.07;1.60;;;11.90;45.20;;;;;;6357846;27;20044;-78
2021/03/27 16:12:40;;;;;;;7.50;1.75;;;11.80;45.50;;;;;;6349159;27;20498;-78
2021/03/27 16:15:45;;;;;;;9.43;2.55;;;11.70;45.90;;;;;;6324741;28;20050;-78
2021/03/27 16:19:03;;;;;;;5.05;1.60;;;11.70;45.90;;;;;;6325082;28;20087;-78
2021/03/27 16:22:25;;;;;;;2.53;1.85;;;11.70;45.70;;;;;;6299742;28;20071;-77
2021/03/27 16:25:43;;;;;;;5.47;2.33;;;11.70;45.50;;;;;;6305485;28;20468;-78
2021/03/27 16:29:00;;;;;;;8.93;1.98;;;11.70;45.60;;;;;;6306826;28;20052;-78
2021/03/27 16:32:06;;;;;;;4.13;1.50;;;11.70;46.10;;;;;;6306211;28;20056;-78
2021/03/27 16:35:23;;;;;;;6.07;2.30;;;11.70;45.70;;;;;;6307991;28;20048;-79
2021/03/27 16:38:44;;;;;;;3.47;2.05;;;11.70;45.80;;;;;;6307599;28;20056;-78
2021/03/27 16:42:09;;;;;;;4.20;1.48;;;11.60;46.10;;;;;;6298432;28;20473;-77
2021/03/27 16:45:22;;;;;;;7.53;2.28;;;11.60;45.90;;;;;;6297184;28;20081;-78
2021/03/27 16:48:32;;;;;;;3.88;1.60;;;11.50;45.80;;;;;;6293881;28;20052;-78
2021/03/27 16:51:43;;;;;;;3.55;1.73;;;11.60;46.40;;;;;;6276867;28;20072;-78
2021/03/27 16:54:53;;;;;;;7.13;1.90;;;11.50;46.20;;;;;;6274216;28;20053;-78
2021/03/27 16:58:00;;;;;;;4.78;1.70;;;11.50;46.70;;;;;;6278127;28;20060;-78
2021/03/27 17:01:07;;;;;;;5.72;1.52;;;11.50;46.80;;;;;;6273183;28;20045;-78
2021/03/27 17:04:21;;;;;;;3.17;1.40;;;11.40;47.20;;;;;;6271720;28;20125;-78
2021/03/27 17:07:31;;;;;;;8.30;2.17;;;11.40;47.80;;;;;;6271197;28;20507;-79